Time;durP1;ratioP1;P1;durP2;ratioP2;P2;SDS_P1;SDS_P2;PMS_P1;PMS_P2;Temp;Humidity;BMP_temperature;BMP_pressure;BME280_temperature;BME280_humidity;BME280_pressure;Samples;Min_cycle;Max_cycle;Signal;HPM_P1;HPM_P2
2023/06/21 00:02:24;;;;;;;21.92;15.88;;;;;;;19.68;97.40;99952.50;10186546;29;20445;-76
2023/06/21 00:07:27;;;;;;;16.08;13.93;;;;;;;19.57;96.61;99950.28;10184952;29;20143;-74
2023/06/21 00:12:30;;;;;;;16.00;13.98;;;;;;;19.59;96.68;99936.50;10188116;29;20401;-76
2023/06/21 00:17:34;;;;;;;18.58;13.30;;;;;;;19.38;95.45;99937.28;10191277;29;20055;-75
2023/06/21 00:22:37;;;;;;;15.30;13.73;;;;;;;19.36;95.97;99939.34;10181706;29;20048;-75
2023/06/21 00:27:42;;;;;;;17.20;13.02;;;;;;;19.36;95.41;99931.16;10185015;29;20415;-76
2023/06/21 00:32:46;;;;;;;14.77;13.23;;;;;;;19.42;95.92;99944.03;10187563;29;20944;-74
2023/06/21 00:37:49;;;;;;;16.65;14.25;;;;;;;19.42;95.78;99954.94;10210349;28;20051;-74
2023/06/21 00:42:55;;;;;;;17.50;13.43;;;;;;;19.31;94.22;99969.03;10193497;29;20127;-76
2023/06/21 00:47:59;;;;;;;16.13;13.20;;;;;;;19.24;95.04;99980.69;10190681;29;20055;-75
2023/06/21 00:53:02;;;;;;;16.15;14.45;;;;;;;19.29;95.49;99980.13;10190699;29;20115;-74
2023/06/21 00:58:05;;;;;;;15.65;13.93;;;;;;;19.34;95.81;99988.56;10183127;29;20500;-75
2023/06/21 01:03:11;;;;;;;22.60;14.82;;;;;;;19.43;96.15;100000.19;10187378;29;20044;-76
2023/06/21 01:08:19;;;;;;;23.30;16.40;;;;;;;19.26;94.00;100023.22;10187484;29;20040;-76
2023/06/21 01:13:32;;;;;;;19.73;15.35;;;;;;;19.07;94.47;100038.28;10193340;29;20076;-76
2023/06/21 01:18:37;;;;;;;;;;;;;;;18.99;95.89;100036.47;10190394;29;20059;-76
2023/06/21 01:23:59;;;;;;;22.83;17.65;;;;;;;18.66;96.59;100052.28;10188918;29;20383;-76
2023/06/21 01:29:12;;;;;;;21.38;19.08;;;;;;;18.75;95.49;100046.56;10184900;29;20554;-76
2023/06/21 01:34:17;;;;;;;21.23;17.83;;;;;;;18.70;95.42;100059.03;10173386;29;20036;-76
2023/06/21 01:39:19;;;;;;;23.95;19.40;;;;;;;18.42;96.67;100056.06;10175188;29;20065;-73
2023/06/21 01:44:24;;;;;;;29.20;20.88;;;;;;;18.68;95.16;100059.22;10179818;29;20122;-76
2023/06/21 01:49:30;;;;;;;24.50;18.67;;;;;;;18.79;94.56;100079.72;10191902;29;20479;-76
2023/06/21 01:54:34;;;;;;;23.45;18.90;;;;;;;18.81;92.97;100074.94;10190592;29;20141;-75
2023/06/21 01:59:39;;;;;;;24.05;19.58;;;;;;;18.98;93.58;100072.91;10185112;29;20052;-76
2023/06/21 02:04:44;;;;;;;22.08;19.70;;;;;;;18.92;93.59;100084.50;10190380;29;20044;-76
2023/06/21 02:09:48;;;;;;;23.52;18.75;;;;;;;19.07;94.54;100081.81;10189938;29;20056;-76
2023/06/21 02:14:53;;;;;;;22.90;19.63;;;;;;;19.13;94.45;100083.78;10196033;29;20048;-75
2023/06/21 02:19:55;;;;;;;26.10;19.27;;;;;;;19.11;93.76;100085.84;10206132;29;20051;-76
2023/06/21 02:24:58;;;;;;;22.35;19.95;;;;;;;19.11;94.21;100094.00;10190637;29;20135;-74
2023/06/21 02:30:03;;;;;;;27.67;19.48;;;;;;;19.04;93.57;100096.66;10194955;29;20100;-76
2023/06/21 02:35:09;;;;;;;25.38;20.02;;;;;;;19.01;93.82;100099.75;10190517;29;20051;-74
2023/06/21 02:40:13;;;;;;;20.63;17.80;;;;;;;18.95;93.88;100097.75;10196736;29;20051;-73
2023/06/21 02:45:18;;;;;;;25.48;18.08;;;;;;;18.94;94.33;100106.94;10173761;29;20042;-74
2023/06/21 02:50:22;;;;;;;20.65;17.08;;;;;;;18.95;94.27;100104.06;10201150;29;20047;-74
2023/06/21 02:55:25;;;;;;;21.77;17.00;;;;;;;18.91;94.05;100120.94;10198921;29;20107;-74
2023/06/21 03:00:31;;;;;;;21.40;17.95;;;;;;;18.88;93.26;100124.03;10191145;29;20056;-74
2023/06/21 03:05:37;;;;;;;19.13;17.15;;;;;;;18.75;92.36;100125.44;10189231;29;20032;-75
2023/06/21 03:10:40;;;;;;;18.85;16.65;;;;;;;18.63;91.84;100140.53;10188896;29;20399;-75
2023/06/21 03:15:44;;;;;;;20.65;17.17;;;;;;;18.49;91.69;100136.75;10183141;29;20083;-74
2023/06/21 03:20:50;;;;;;;23.95;17.13;;;;;;;18.54;92.38;100138.91;10183691;29;20044;-75
2023/06/21 03:25:52;;;;;;;25.55;18.92;;;;;;;18.52;92.71;100160.00;10187886;29;20044;-72
2023/06/21 03:30:57;;;;;;;23.42;18.67;;;;;;;18.03;92.63;100165.78;10188256;29;20071;-74
2023/06/21 03:36:03;;;;;;;23.45;19.75;;;;;;;17.70;94.89;100166.72;10192558;29;20044;-73
2023/06/21 03:41:08;;;;;;;27.50;20.38;;;;;;;17.85;93.85;100166.84;10187988;29;20540;-74
2023/06/21 03:46:13;;;;;;;23.02;18.85;;;;;;;17.82;93.26;100186.19;10200408;29;20143;-74
2023/06/21 03:51:17;;;;;;;31.70;23.02;;;;;;;18.12;92.17;100203.59;10199747;29;20048;-74
2023/06/21 03:56:21;;;;;;;30.70;23.00;;;;;;;18.28;91.63;100221.69;10193488;29;20045;-74
2023/06/21 04:01:26;;;;;;;31.10;22.73;;;;;;;17.86;91.39;100231.03;10190666;29;20142;-74
2023/06/21 04:06:29;;;;;;;29.77;22.35;;;;;;;18.14;91.03;100241.47;10196022;29;20151;-74
2023/06/21 04:11:33;;;;;;;27.23;22.25;;;;;;;18.08;90.50;100248.47;10197917;29;20499;-74
2023/06/21 04:16:37;;;;;;;26.60;21.98;;;;;;;17.88;91.00;100267.03;10199314;29;20147;-74
2023/06/21 04:21:41;;;;;;;31.38;24.00;;;;;;;18.23;89.46;100262.13;10197704;29;20044;-74
2023/06/21 04:26:44;;;;;;;31.70;23.63;;;;;;;17.95;89.81;100267.16;10190388;29;20503;-73
2023/06/21 04:31:52;;;;;;;31.70;23.60;;;;;;;18.30;88.57;100274.00;10187570;29;20032;-74
2023/06/21 04:36:55;;;;;;;36.30;25.95;;;;;;;18.32;88.11;100269.25;10193207;29;20499;-73
2023/06/21 04:41:58;;;;;;;37.53;25.30;;;;;;;18.40;87.85;100257.47;10199444;29;20048;-74
2023/06/21 04:47:02;;;;;;;36.90;27.30;;;;;;;18.46;88.00;100253.22;10200991;29;20534;-73
2023/06/21 04:52:06;;;;;;;36.53;25.13;;;;;;;18.58;87.14;100259.91;10196369;29;20530;-73
2023/06/21 04:57:12;;;;;;;34.15;23.27;;;;;;;18.62;86.68;100255.78;10190381;29;20048;-73
2023/06/21 05:02:16;;;;;;;29.20;22.50;;;;;;;18.66;85.83;100256.31;10187628;29;20048;-74
2023/06/21 05:07:19;;;;;;;30.70;21.50;;;;;;;18.34;86.33;100266.34;10187458;29;20542;-73
2023/06/21 05:12:22;;;;;;;31.10;21.77;;;;;;;18.60;85.94;100270.63;10195913;29;20048;-73
2023/06/21 05:17:26;;;;;;;28.25;19.15;;;;;;;18.66;85.24;100276.19;10193214;29;20047;-74
2023/06/21 05:22:29;;;;;;;31.08;20.33;;;;;;;18.81;84.96;100281.72;10197229;29;20083;-74
2023/06/21 05:27:32;;;;;;;27.88;19.35;;;;;;;18.84;83.96;100291.41;10192724;29;20519;-73
2023/06/21 05:32:36;;;;;;;25.67;19.30;;;;;;;18.83;83.84;100306.03;10193803;29;20043;-76
2023/06/21 05:37:39;;;;;;;32.20;19.25;;;;;;;18.83;83.11;100309.59;10186085;29;20043;-74
2023/06/21 05:42:42;;;;;;;24.75;16.58;;;;;;;18.79;82.24;100300.97;10193312;29;20062;-75
2023/06/21 05:47:46;;;;;;;22.15;16.88;;;;;;;18.99;83.86;100314.94;10188236;29;20063;-73
2023/06/21 05:52:50;;;;;;;22.77;18.15;;;;;;;20.12;80.04;100305.03;10194634;29;20044;-73
2023/06/21 05:57:53;;;;;;;20.50;15.75;;;;;;;19.77;78.01;100320.25;10194216;29;20051;-74
2023/06/21 06:02:57;;;;;;;23.55;15.80;;;;;;;19.65;77.78;100325.31;10193239;29;20080;-74
2023/06/21 06:08:00;;;;;;;22.63;18.83;;;;;;;19.81;78.79;100307.97;10186107;29;20052;-73
2023/06/21 06:13:02;;;;;;;31.33;24.50;;;;;;;19.98;76.19;100322.25;10177851;29;20040;-74
2023/06/21 06:18:07;;;;;;;29.95;25.83;;;;;;;19.99;76.25;100341.13;10186357;29;20051;-73
2023/06/21 06:23:11;;;;;;;27.13;23.02;;;;;;;20.39;79.09;100339.00;10192052;29;20067;-74
2023/06/21 06:28:13;;;;;;;35.08;31.40;;;;;;;20.07;75.40;100343.75;10198162;29;20048;-74
2023/06/21 06:33:18;;;;;;;31.70;28.15;;;;;;;20.12;74.72;100348.66;10193613;29;20115;-74
2023/06/21 06:38:20;;;;;;;34.50;30.73;;;;;;;20.51;75.04;100364.75;10196060;29;20551;-74
2023/06/21 06:43:23;;;;;;;39.72;32.67;;;;;;;20.88;74.40;100379.28;10190153;29;20040;-75
2023/06/21 06:48:28;;;;;;;39.45;32.22;;;;;;;20.53;73.04;100391.84;10179597;29;20120;-75
2023/06/21 06:53:31;;;;;;;35.70;31.92;;;;;;;20.09;73.74;100398.13;10183959;29;20036;-73
2023/06/21 06:58:35;;;;;;;37.72;32.15;;;;;;;20.47;73.60;100384.44;10186981;29;20115;-74
2023/06/21 07:03:39;;;;;;;33.38;29.95;;;;;;;20.65;72.58;100404.00;10190332;29;20408;-73
2023/06/21 07:08:44;;;;;;;32.35;27.98;;;;;;;21.15;71.73;100402.31;10187743;29;20048;-74
2023/06/21 07:13:47;;;;;;;34.35;30.73;;;;;;;21.63;71.16;100402.56;10188257;29;20039;-74
2023/06/21 07:18:52;;;;;;;29.55;26.65;;;;;;;21.48;70.64;100401.81;10193560;29;20131;-74
2023/06/21 07:23:54;;;;;;;26.60;23.80;;;;;;;21.94;69.14;100401.38;10187953;29;20047;-74
2023/06/21 07:28:57;;;;;;;27.88;25.02;;;;;;;24.15;61.47;100396.44;10186833;29;20051;-74
2023/06/21 07:34:02;;;;;;;25.25;22.58;;;;;;;23.14;62.68;100402.88;10191151;29;20043;-73
2023/06/21 07:39:10;;;;;;;26.77;23.48;;;;;;;23.43;62.26;100404.44;10193309;29;20052;-73
2023/06/21 07:44:13;;;;;;;24.13;21.73;;;;;;;23.71;61.13;100397.91;10205223;29;20506;-73
2023/06/21 07:49:17;;;;;;;25.00;22.38;;;;;;;23.74;60.42;100400.22;10200286;29;20035;-74
2023/06/21 07:54:20;;;;;;;24.98;22.45;;;;;;;24.18;59.22;100403.41;10188383;29;20055;-73
2023/06/21 07:59:23;;;;;;;25.38;22.77;;;;;;;23.46;61.40;100405.06;10190032;29;20480;-73
2023/06/21 08:04:27;;;;;;;23.77;21.38;;;;;;;23.61;61.19;100397.47;10195988;29;20048;-73
2023/06/21 08:09:30;;;;;;;24.67;20.05;;;;;;;22.93;61.85;100403.03;10198852;29;20044;-74
2023/06/21 08:14:33;;;;;;;20.98;18.88;;;;;;;23.39;62.21;100405.06;10194466;29;20038;-74
2023/06/21 08:19:37;;;;;;;19.60;17.77;;;;;;;23.08;60.92;100416.53;10198924;29;20055;-74
2023/06/21 08:24:40;;;;;;;19.17;17.48;;;;;;;23.24;62.15;100416.19;10195426;29;20043;-76
2023/06/21 08:29:43;;;;;;;19.45;17.58;;;;;;;23.30;60.45;100414.53;10190978;29;20083;-74
2023/06/21 08:34:48;;;;;;;18.25;16.50;;;;;;;23.94;59.06;100413.13;10188999;29;20036;-72
2023/06/21 08:39:52;;;;;;;19.92;18.10;;;;;;;23.61;61.15;100425.78;10203063;29;20093;-73
2023/06/21 08:44:55;;;;;;;19.15;17.13;;;;;;;23.62;61.58;100430.19;10204377;29;20071;-72
2023/06/21 08:50:00;;;;;;;20.17;18.45;;;;;;;23.93;59.73;100434.22;10200594;29;20043;-73
2023/06/21 08:55:09;;;;;;;19.48;17.52;;;;;;;23.74;61.42;100441.38;10196779;29;20155;-73
2023/06/21 09:00:16;;;;;;;18.48;16.52;;;;;;;24.25;58.91;100438.00;10211260;29;20048;-74
2023/06/21 09:05:26;;;;;;;17.50;15.93;;;;;;;24.71;56.17;100437.09;10193604;29;20072;-71
2023/06/21 09:10:30;;;;;;;17.00;15.30;;;;;;;24.81;55.93;100435.78;10193012;29;20134;-73
2023/06/21 09:15:34;;;;;;;15.98;14.45;;;;;;;24.93;56.70;100445.88;10200641;29;20046;-72
2023/06/21 09:20:39;;;;;;;15.57;13.88;;;;;;;24.80;56.49;100445.94;10208027;29;20047;-74
2023/06/21 09:25:44;;;;;;;15.95;14.30;;;;;;;24.92;55.87;100444.19;10202303;29;20113;-72
2023/06/21 09:30:47;;;;;;;18.35;14.45;;;;;;;23.67;58.80;100454.25;10198161;29;20059;-72
2023/06/21 09:35:52;;;;;;;17.08;15.38;;;;;;;24.21;58.55;100452.38;10197680;29;20043;-72
2023/06/21 09:40:56;;;;;;;26.02;13.02;;;;;;;25.63;53.65;100454.22;10196129;29;20044;-72
2023/06/21 09:45:59;;;;;;;13.30;12.00;;;;;;;24.95;53.47;100448.41;10195847;29;20040;-73
2023/06/21 09:51:05;;;;;;;14.10;12.60;;;;;;;25.43;54.08;100461.72;10198002;29;20119;-73
2023/06/21 09:56:08;;;;;;;16.77;13.23;;;;;;;25.81;52.58;100453.47;10208305;29;20036;-73
2023/06/21 10:01:14;;;;;;;13.68;12.38;;;;;;;25.88;52.55;100469.06;10203347;29;20052;-72
2023/06/21 10:06:28;;;;;;;12.82;11.52;;;;;;;25.04;53.50;100473.75;10202160;29;20051;-74
2023/06/21 10:11:33;;;;;;;11.85;10.85;;;;;;;24.70;54.49;100473.00;10195933;29;20511;-73
2023/06/21 10:16:37;;;;;;;12.15;10.95;;;;;;;25.02;52.63;100479.44;10200430;29;20039;-73
2023/06/21 10:21:43;;;;;;;9.60;8.80;;;;;;;25.82;50.96;100466.13;10194128;29;20050;-75
2023/06/21 10:26:49;;;;;;;9.50;8.60;;;;;;;25.81;50.78;100464.47;10191634;29;20039;-75
2023/06/21 10:31:54;;;;;;;10.07;9.15;;;;;;;25.76;50.81;100466.19;10193481;29;20043;-76
2023/06/21 10:37:07;;;;;;;10.30;8.95;;;;;;;25.30;51.10;100472.78;10187977;29;20138;-74
2023/06/21 10:42:10;;;;;;;9.18;8.38;;;;;;;26.05;51.51;100470.19;10199035;29;20063;-75
2023/06/21 10:47:14;;;;;;;9.15;7.63;;;;;;;27.50;48.36;100475.19;10199112;29;20529;-75
2023/06/21 10:52:19;;;;;;;10.35;9.35;;;;;;;26.48;48.56;100466.66;10187010;29;20048;-74
2023/06/21 10:57:24;;;;;;;10.55;9.50;;;;;;;25.15;51.64;100490.41;10195543;29;20056;-74
2023/06/21 11:02:28;;;;;;;11.02;9.90;;;;;;;25.78;51.44;100494.31;10197628;29;20037;-74
2023/06/21 11:07:34;;;;;;;9.98;9.18;;;;;;;26.72;49.02;100498.81;10201989;29;20512;-74
2023/06/21 11:12:37;;;;;;;10.00;8.75;;;;;;;27.57;48.06;100498.00;10199750;29;20123;-75
2023/06/21 11:17:40;;;;;;;9.27;8.35;;;;;;;27.90;45.51;100496.66;10191738;29;20046;-74
2023/06/21 11:22:55;;;;;;;10.48;8.23;;;;;;;28.90;45.06;100487.47;10190954;29;20040;-75
2023/06/21 11:28:24;;;;;;;10.65;8.73;;;;;;;29.65;41.83;100487.59;10190106;29;20043;-75
2023/06/21 11:33:29;;;;;;;7.57;6.88;;;;;;;28.35;45.29;100496.13;10188458;29;20048;-74
2023/06/21 11:38:35;;;;;;;7.60;6.95;;;;;;;27.80;46.19;100497.22;10195877;29;20131;-73
2023/06/21 11:43:38;;;;;;;9.05;7.22;;;;;;;27.88;46.84;100507.09;10195117;29;20052;-75
2023/06/21 11:48:41;;;;;;;8.65;7.55;;;;;;;27.77;43.36;100516.19;10193059;29;20067;-75
2023/06/21 11:53:48;;;;;;;7.55;6.85;;;;;;;28.59;44.82;100518.28;10188620;29;20107;-74
2023/06/21 11:58:51;;;;;;;6.82;6.22;;;;;;;28.44;42.84;100508.53;10194279;29;20040;-74
2023/06/21 12:03:58;;;;;;;6.55;5.97;;;;;;;28.84;42.62;100502.25;10192147;29;20128;-77
2023/06/21 12:09:03;;;;;;;6.85;6.32;;;;;;;29.85;40.59;100510.13;10182687;29;20055;-76
2023/06/21 12:14:08;;;;;;;6.25;5.65;;;;;;;30.02;41.19;100504.59;10193731;29;20052;-77
2023/06/21 12:19:12;;;;;;;7.22;6.68;;;;;;;29.24;43.63;100507.00;10213484;29;20048;-77
2023/06/21 12:24:26;;;;;;;6.57;6.07;;;;;;;29.80;44.28;100502.56;10194574;29;20464;-76
2023/06/21 12:29:29;;;;;;;6.80;6.20;;;;;;;30.96;40.81;100503.00;10204785;29;20036;-77
2023/06/21 12:34:33;;;;;;;6.85;6.25;;;;;;;31.59;38.61;100504.34;10197300;29;20032;-77
2023/06/21 12:39:49;;;;;;;6.90;6.20;;;;;;;28.53;43.40;100510.97;10200870;29;20039;-77
2023/06/21 12:44:57;;;;;;;6.80;6.30;;;;;;;29.35;43.96;100521.91;10207661;29;20055;-75
2023/06/21 12:50:00;;;;;;;8.57;7.68;;;;;;;29.55;41.95;100532.50;10218802;29;21287;-74
2023/06/21 12:55:05;;;;;;;7.80;7.03;;;;;;;30.51;42.32;100515.94;10214583;29;20460;-77
2023/06/21 13:00:10;;;;;;;8.25;7.45;;;;;;;32.56;38.74;100515.50;10207036;29;20487;-75
2023/06/21 13:05:13;;;;;;;7.78;6.97;;;;;;;33.18;37.63;100511.13;10200420;29;20039;-79
2023/06/21 13:10:17;;;;;;;8.98;8.07;;;;;;;32.05;37.54;100531.75;10196396;29;20107;-76
2023/06/21 13:15:20;;;;;;;8.02;7.28;;;;;;;31.48;39.60;100536.69;10198579;29;20048;-77
2023/06/21 13:20:23;;;;;;;7.97;7.32;;;;;;;30.55;40.62;100535.69;10202158;29;20055;-77
2023/06/21 13:25:28;;;;;;;8.15;7.35;;;;;;;31.57;40.14;100532.38;10194927;29;20091;-76
2023/06/21 13:30:31;;;;;;;7.38;6.78;;;;;;;31.32;38.94;100532.94;10192514;29;20047;-77
2023/06/21 13:35:34;;;;;;;7.47;6.78;;;;;;;33.01;37.21;100523.28;10193792;29;20043;-77
2023/06/21 13:40:38;;;;;;;11.52;7.03;;;;;;;33.91;36.49;100534.19;10187351;29;20146;-76
2023/06/21 13:45:41;;;;;;;7.50;6.80;;;;;;;32.54;36.86;100531.63;10182314;29;20126;-77
2023/06/21 13:50:44;;;;;;;7.90;7.20;;;;;;;29.42;41.39;100538.34;10189204;29;20056;-77
2023/06/21 13:55:49;;;;;;;7.72;7.07;;;;;;;29.08;42.38;100532.66;10197235;29;20394;-77
2023/06/21 14:00:51;;;;;;;7.80;7.10;;;;;;;30.14;41.37;100530.34;10198179;29;20418;-77
2023/06/21 14:05:54;;;;;;;7.43;6.82;;;;;;;31.98;38.27;100523.63;10200535;29;20052;-77
2023/06/21 14:10:59;;;;;;;6.72;6.18;;;;;;;32.47;37.99;100512.38;10197691;29;20154;-77
2023/06/21 14:16:02;;;;;;;7.45;6.82;;;;;;;32.38;37.05;100528.72;10187338;29;20146;-77
2023/06/21 14:21:06;;;;;;;8.10;7.05;;;;;;;31.91;39.06;100537.72;10183180;29;20062;-77
2023/06/21 14:26:10;;;;;;;7.90;7.15;;;;;;;31.97;38.19;100527.50;10192304;29;20036;-77
2023/06/21 14:31:13;;;;;;;6.82;6.18;;;;;;;30.48;39.62;100525.59;10196942;29;20057;-77
2023/06/21 14:36:16;;;;;;;7.18;6.57;;;;;;;31.23;38.30;100530.84;10192502;29;20550;-77
2023/06/21 14:41:20;;;;;;;7.70;6.13;;;;;;;30.79;39.62;100526.09;10192230;29;20048;-77
2023/06/21 14:46:23;;;;;;;6.53;5.93;;;;;;;31.50;37.40;100528.13;10190028;29;20385;-77
2023/06/21 14:51:26;;;;;;;6.38;5.88;;;;;;;31.37;37.90;100531.28;10184704;29;20152;-76
2023/06/21 14:56:30;;;;;;;11.85;6.93;;;;;;;30.62;39.00;100536.34;10183173;29;20036;-76
2023/06/21 15:01:33;;;;;;;6.57;6.03;;;;;;;29.65;41.41;100541.06;10195564;29;20048;-75
2023/06/21 15:06:37;;;;;;;7.97;7.18;;;;;;;29.42;41.29;100538.34;10189710;29;20532;-76
2023/06/21 15:11:41;;;;;;;6.63;6.13;;;;;;;31.76;38.48;100532.03;10185764;29;20524;-77
2023/06/21 15:16:46;;;;;;;10.02;6.10;;;;;;;31.40;37.43;100528.84;10194012;29;20054;-78
2023/06/21 15:21:49;;;;;;;6.80;6.20;;;;;;;30.84;38.42;100533.66;10196695;29;20063;-75
2023/06/21 15:26:53;;;;;;;6.00;5.43;;;;;;;30.69;39.28;100532.34;10184304;29;20424;-76
2023/06/21 15:31:56;;;;;;;5.65;5.13;;;;;;;30.93;38.63;100532.09;10180018;29;20048;-76
2023/06/21 15:36:59;;;;;;;6.10;5.60;;;;;;;31.96;37.06;100535.00;10183173;29;20148;-76
2023/06/21 15:42:03;;;;;;;5.75;5.25;;;;;;;31.66;36.98;100534.69;10189738;29;20047;-76
2023/06/21 15:47:06;;;;;;;5.65;5.15;;;;;;;31.08;36.92;100543.41;10190205;29;20047;-76
2023/06/21 15:52:10;;;;;;;6.97;5.45;;;;;;;31.73;38.07;100552.84;10188752;29;20098;-75
2023/06/21 15:57:14;;;;;;;5.25;4.85;;;;;;;32.30;36.12;100545.03;10185917;29;20078;-76
2023/06/21 16:02:19;;;;;;;5.57;5.13;;;;;;;31.96;36.19;100554.44;10178669;29;20067;-76
2023/06/21 16:07:22;;;;;;;5.90;5.40;;;;;;;30.47;38.19;100546.13;10180239;29;20068;-75
2023/06/21 16:12:26;;;;;;;5.57;5.07;;;;;;;28.93;40.00;100555.25;10193469;29;20044;-76
2023/06/21 16:17:29;;;;;;;5.10;4.70;;;;;;;30.38;38.88;100553.16;10195391;29;20052;-76
2023/06/21 16:22:32;;;;;;;6.05;5.55;;;;;;;32.38;36.28;100550.94;10190202;29;20119;-76
2023/06/21 16:27:37;;;;;;;6.22;5.63;;;;;;;32.02;35.58;100544.22;10187175;29;20048;-76
2023/06/21 16:32:39;;;;;;;5.63;5.13;;;;;;;33.65;33.26;100536.06;10185663;29;20567;-76
2023/06/21 16:37:43;;;;;;;5.30;4.90;;;;;;;36.91;30.40;100546.19;10180453;29;20068;-77
2023/06/21 16:42:47;;;;;;;5.18;4.78;;;;;;;38.09;27.39;100536.22;10181020;29;20119;-77
2023/06/21 16:47:50;;;;;;;5.40;5.00;;;;;;;37.25;29.23;100525.66;10190735;29;20503;-76
2023/06/21 16:52:53;;;;;;;4.95;4.55;;;;;;;35.31;31.94;100536.50;10198955;29;20567;-77
2023/06/21 16:57:57;;;;;;;5.05;4.65;;;;;;;38.06;28.66;100540.44;10200230;29;20043;-74
2023/06/21 17:03:00;;;;;;;5.18;4.88;;;;;;;37.95;27.01;100535.31;10199843;29;20040;-77
2023/06/21 17:08:06;;;;;;;5.53;5.07;;;;;;;38.48;27.41;100537.78;10198910;29;20044;-75
2023/06/21 17:13:11;;;;;;;5.72;4.85;;;;;;;38.63;27.28;100536.69;10189071;29;20676;-75
2023/06/21 17:18:14;;;;;;;4.90;4.50;;;;;;;38.27;27.91;100548.53;10201223;29;20039;-77
2023/06/21 17:23:17;;;;;;;5.28;4.88;;;;;;;37.36;28.36;100552.41;10205508;29;20072;-77
2023/06/21 17:28:21;;;;;;;5.40;4.95;;;;;;;39.45;25.29;100539.50;10203945;29;20076;-77
2023/06/21 17:33:24;;;;;;;5.28;4.78;;;;;;;38.89;25.65;100545.44;10202687;29;20040;-77
2023/06/21 17:38:27;;;;;;;5.30;4.90;;;;;;;38.01;27.63;100542.50;10194371;29;20043;-77
2023/06/21 17:43:31;;;;;;;5.18;4.68;;;;;;;38.11;26.99;100537.56;10199670;29;20044;-77
2023/06/21 17:48:36;;;;;;;5.15;4.75;;;;;;;37.35;27.34;100549.88;10187264;29;20043;-77
2023/06/21 17:53:39;;;;;;;4.65;4.35;;;;;;;33.32;32.15;100542.91;10196841;29;20964;-77
2023/06/21 17:58:44;;;;;;;4.47;4.18;;;;;;;30.75;36.21;100557.38;10205303;29;20063;-77
2023/06/21 18:03:47;;;;;;;5.07;4.75;;;;;;;30.06;38.39;100565.84;10194594;29;20044;-76
2023/06/21 18:08:50;;;;;;;5.63;5.18;;;;;;;29.47;39.70;100560.56;10192291;29;20036;-73
2023/06/21 18:13:55;;;;;;;5.40;5.00;;;;;;;28.85;40.66;100567.53;10190314;29;20052;-73
2023/06/21 18:18:57;;;;;;;7.00;4.95;;;;;;;28.11;41.41;100577.25;10191100;29;20044;-73
2023/06/21 18:24:07;;;;;;;5.30;4.80;;;;;;;27.74;42.13;100578.19;10189633;29;20042;-73
2023/06/21 18:29:12;;;;;;;6.03;5.18;;;;;;;27.51;42.29;100587.22;10195268;29;20047;-73
2023/06/21 18:34:15;;;;;;;5.53;5.10;;;;;;;27.31;42.50;100581.91;10199381;29;20417;-72
2023/06/21 18:39:18;;;;;;;5.05;4.65;;;;;;;27.03;42.87;100590.72;10204302;29;20053;-73
2023/06/21 18:44:22;;;;;;;5.57;5.13;;;;;;;26.97;44.22;100588.88;10204546;29;20055;-74
2023/06/21 18:49:27;;;;;;;5.18;4.78;;;;;;;26.86;45.19;100587.72;10197132;29;20138;-73
2023/06/21 18:54:30;;;;;;;5.63;4.93;;;;;;;26.64;46.09;100584.50;10192185;29;20056;-73
2023/06/21 18:59:34;;;;;;;6.00;5.50;;;;;;;26.42;47.35;100591.47;10191309;29;20392;-72
2023/06/21 19:04:37;;;;;;;5.63;5.13;;;;;;;26.09;48.44;100581.53;10195291;29;20118;-73
2023/06/21 19:09:45;;;;;;;5.53;5.03;;;;;;;25.84;47.69;100578.72;10200948;29;20039;-73
2023/06/21 19:14:50;;;;;;;5.03;4.63;;;;;;;25.58;48.05;100575.00;10202670;29;20040;-73
2023/06/21 19:19:54;;;;;;;5.68;5.20;;;;;;;25.47;48.59;100578.44;10201032;29;20395;-73
2023/06/21 19:24:57;;;;;;;5.63;4.82;;;;;;;25.35;49.00;100575.53;10195458;29;20047;-73
2023/06/21 19:30:01;;;;;;;5.80;5.30;;;;;;;25.06;47.55;100573.31;10187245;29;20044;-73
2023/06/21 19:35:04;;;;;;;7.72;4.95;;;;;;;24.84;48.22;100583.69;10186819;29;20710;-73
2023/06/21 19:40:09;;;;;;;5.30;4.82;;;;;;;24.80;48.84;100583.28;10190746;29;20487;-73
2023/06/21 19:45:13;;;;;;;4.53;4.13;;;;;;;24.66;48.71;100585.19;10195063;29;20047;-73
2023/06/21 19:50:17;;;;;;;6.30;4.45;;;;;;;24.46;47.90;100581.59;10198779;29;20044;-72
2023/06/21 19:55:20;;;;;;;4.80;4.35;;;;;;;24.30;47.79;100583.69;10195337;29;20051;-72
2023/06/21 20:00:24;;;;;;;4.72;4.32;;;;;;;24.32;45.94;100587.03;10191330;29;20488;-72
2023/06/21 20:05:27;;;;;;;5.28;4.32;;;;;;;24.03;47.25;100601.19;10183596;29;20043;-72
2023/06/21 20:10:30;;;;;;;4.25;3.90;;;;;;;23.53;48.74;100606.91;10182429;29;20422;-72
2023/06/21 20:15:34;;;;;;;4.50;4.10;;;;;;;23.27;49.09;100617.72;10193078;29;20104;-72
2023/06/21 20:20:37;;;;;;;4.57;4.05;;;;;;;22.92;49.69;100606.72;10196325;29;20032;-72
2023/06/21 20:25:40;;;;;;;4.82;4.43;;;;;;;23.07;49.94;100610.22;10202450;29;20486;-73
2023/06/21 20:30:45;;;;;;;4.45;3.85;;;;;;;23.08;50.02;100608.31;10197675;29;20044;-73
2023/06/21 20:35:49;;;;;;;4.50;4.10;;;;;;;22.92;50.00;100618.53;10200884;29;20077;-72
2023/06/21 20:40:58;;;;;;;4.97;4.28;;;;;;;22.90;50.67;100622.50;10195433;29;20036;-73
2023/06/21 20:46:07;;;;;;;4.68;4.03;;;;;;;23.01;49.73;100624.72;10200912;29;20492;-73
2023/06/21 20:51:10;;;;;;;5.65;5.03;;;;;;;22.86;50.12;100616.59;10202009;29;20071;-73
2023/06/21 20:56:13;;;;;;;4.55;3.97;;;;;;;22.88;49.94;100627.38;10208743;29;20047;-73
2023/06/21 21:01:17;;;;;;;6.72;4.93;;;;;;;22.92;50.51;100615.78;10210968;29;20062;-73
2023/06/21 21:06:20;;;;;;;5.45;4.60;;;;;;;22.97;50.90;100620.66;10205555;29;20079;-74
2023/06/21 21:11:23;;;;;;;4.65;4.25;;;;;;;22.71;50.39;100618.59;10204007;29;20039;-73
2023/06/21 21:16:30;;;;;;;4.53;4.13;;;;;;;22.56;50.63;100624.16;10200386;29;20044;-71
2023/06/21 21:21:33;;;;;;;6.25;3.95;;;;;;;22.49;51.55;100634.19;10220179;29;20035;-73
2023/06/21 21:26:36;;;;;;;5.05;4.55;;;;;;;22.24;50.61;100640.06;10212771;29;20066;-73
2023/06/21 21:31:40;;;;;;;4.45;4.05;;;;;;;22.05;51.78;100636.06;10206205;29;20052;-73
2023/06/21 21:36:43;;;;;;;4.15;3.83;;;;;;;22.19;51.57;100638.91;10206644;29;20138;-73
2023/06/21 21:41:46;;;;;;;5.82;4.47;;;;;;;22.25;51.96;100643.63;10195386;29;20052;-73
2023/06/21 21:46:51;;;;;;;4.55;4.15;;;;;;;22.23;52.38;100659.38;10183135;29;20082;-73
2023/06/21 21:51:54;;;;;;;5.93;4.95;;;;;;;22.14;52.25;100666.88;10181866;29;20420;-74
2023/06/21 21:56:56;;;;;;;5.03;4.55;;;;;;;21.85;53.76;100660.44;10186674;29;20044;-73
2023/06/21 22:02:01;;;;;;;4.68;4.15;;;;;;;21.63;53.11;100675.03;10194100;29;20051;-73
2023/06/21 22:07:04;;;;;;;5.25;4.40;;;;;;;21.41;53.98;100677.69;10193137;29;20052;-73
2023/06/21 22:12:10;;;;;;;5.47;4.97;;;;;;;21.46;54.19;100668.94;10194533;29;20522;-73
2023/06/21 22:17:15;;;;;;;5.20;4.70;;;;;;;21.57;54.57;100676.66;10186903;29;20055;-73
2023/06/21 22:22:18;;;;;;;5.18;4.75;;;;;;;21.56;54.36;100683.16;10186942;29;20036;-73
2023/06/21 22:27:23;;;;;;;6.05;5.05;;;;;;;21.59;54.88;100685.53;10185768;29;20048;-73
2023/06/21 22:32:29;;;;;;;5.13;4.63;;;;;;;21.37;54.93;100687.31;10189704;29;20115;-73
2023/06/21 22:37:36;;;;;;;6.32;5.05;;;;;;;21.22;55.06;100690.03;10190643;29;20048;-73
2023/06/21 22:42:39;;;;;;;5.85;4.93;;;;;;;21.27;55.87;100705.03;10186581;29;20059;-73
2023/06/21 22:47:43;;;;;;;5.88;5.25;;;;;;;21.29;56.21;100702.97;10183818;29;20052;-73
2023/06/21 22:52:51;;;;;;;5.85;4.85;;;;;;;21.31;56.57;100689.94;10183868;29;20055;-72
2023/06/21 22:57:54;;;;;;;6.70;6.10;;;;;;;21.32;56.50;100684.28;10186295;29;20550;-73
2023/06/21 23:02:58;;;;;;;7.82;5.60;;;;;;;21.26;56.61;100695.97;10201232;29;20484;-73